Tropical Cyclones
[Index]
Main Index Home Page Stock Weather Photos Extreme Storms Discussion Storm News and Storm Chasing Reports Tropical Cyclones / Hurricanes / Typhoons Weather Data and Links Wild Fires / Bushfires Weather Observation Techniques Weather Picture Catalogue Tornado Pictures and Reports Stock Video Footage and DVDs for sale
Season 2007-2008 Tropical Cyclone DURGA Track Map
Season 2007-2008 Summaries: [BoM-AU] [JTWC-AU] [JTWC-SIO] [JTWC-SPAC] [JTWC-SH]
<<- Previous TC | BoM 2007-2008 Season | Next TC ->>

click for intensity scale information  Lat/long Grid: Show Hide

 Date Labels: Show Hide

Bureau of Meteorology Tropical Cyclone Data

Name: DURGA
Number: 918 / 200708_23

20 Apr 2008 00:00 UTC to 26 Apr 2008 06:00 UTC

    date/time    lat    long    hPa   cat  kts
2008-04-20 00    5.7    82.2   1004                     
2008-04-20 06    5.7    82.6   1004                     
2008-04-20 12    6.4    83.5   1002         20          
2008-04-20 18    6.5    83.9   1002         20          
2008-04-21 00    7.4    85.4   1000         25          
2008-04-21 06    8.1    85.7   1000         25          
2008-04-21 12    7.9    86.5    998         25          
2008-04-21 18    8.0    87.7    996         30          
2008-04-22 00    8.1    88.9    996         30          
2008-04-22 06    8.2    90.3    990    1    40          
2008-04-22 12    8.1    92.6    984    2    50          
2008-04-22 18    8.1    93.4    984    2    50          
2008-04-23 00    8.6    94.8    984    2    50          
2008-04-23 06    9.2    95.9    984    2    50          
2008-04-23 12    9.4    97.2    984    2    50          
2008-04-23 18    9.9    97.5    984    2    50          
2008-04-24 00   10.0    98.3    984    2    50          
2008-04-24 06   10.8    99.2    984    2    50          
2008-04-24 12   11.4    99.7    990    1    35          
2008-04-24 18   11.8    99.8    990    1    35          
2008-04-25 00   12.7   100.1    990    1    35          
2008-04-25 06   13.9   100.2    996         30          
2008-04-25 12   14.7   100.0    996         30          
2008-04-25 18   15.4    99.6   1000         25          
2008-04-26 00   16.4    99.6   1000         25          
2008-04-26 06   17.1    99.4   1000         20          
Winds are 10-min average.

Tropical cyclone tracks developed by Michael Bath using data from the Bureau of Meteorology and Google Maps.


[Australian Severe Weather index] [Copyright Notice] [Email Contacts] [Search This Site] [Privacy Policy]
Document: tropical_cyclone_durga.htm Updated: 29 June 2017